METAR AND TAF INFORMATION
METAR FOR LEMD
ADDS - METARS form results

(1931 UTC 26 April 2018)
Data provider http://aviationweather.gov/adds/metars/
 
METAR text: LEMD 261900Z 22009G22KT 180V240 CAVOK 24/08 Q1014 NOSIG
Conditions at: LEMD (MADRID/BARAJAS , ES) observed 1900 UTC 26 April 2018
Temperature: 24.0°C (75°F)
Dewpoint: 8.0°C (46°F) [RH = 36%]
Pressure (altimeter): 29.94 inches Hg (1014.0 mb)
Winds: from the SW (220 degrees) at 10 MPH (9 knots; 4.7 m/s)
gusting to 25 MPH (22 knots; 11.4 m/s)
Visibility: 6 or more miles (10+ km)
Ceiling: ceiling and visibility are OK
Clouds: unknown
Weather: no significant weather observed at this time

Forecast for: LEMD (MADRID/BARAJAS , ES)
Text: TAF LEMD 261700Z 2618/2724 22011KT CAVOK TX28/2715Z TN11/2706Z
Forecast period: 1800 UTC 26 April 2018 to 0000 UTC 28 April 2018
Forecast type: FROM: standard forecast or significant change
Winds: from the SW (220 degrees) at 13 MPH (11 knots; 5.7 m/s)
Visibility: 6 or more miles (10+ km)
Clouds: not forecast
Weather: no significant weather forecast for this period
Forecast for: LEMD (MADRID/BARAJAS , ES)
Text: TAF LEMD 261700Z 2618/2724 22011KT CAVOK TX28/2715Z TN11/2706Z
Forecast period: 1800 UTC 26 April 2018 to 0000 UTC 28 April 2018
Forecast type: FROM: standard forecast or significant change
Winds: from the SW (220 degrees) at 13 MPH (11 knots; 5.7 m/s)
Visibility: 6 or more miles (10+ km)
Clouds: not forecast
Weather: no significant weather forecast for this period
Forecast for: LEMD (MADRID/BARAJAS , ES)
Text: TAF LEMD 261700Z 2618/2724 22011KT CAVOK TX28/2715Z TN11/2706Z
Forecast period: 1800 to 2000 UTC 26 April 2018
Forecast type: TEMPORARY: The following changes expected for less than half the time period
Clouds: few clouds at 4000 feet AGL
Weather: no significant weather forecast for this period
Forecast for: LEMD (MADRID/BARAJAS , ES)
Text: TAF LEMD 261700Z 2618/2724 22011KT CAVOK TX28/2715Z TN11/2706Z
Forecast period: 1800 to 2000 UTC 26 April 2018
Forecast type: TEMPORARY: The following changes expected for less than half the time period
Clouds: few clouds at 4000 feet AGL
Weather: no significant weather forecast for this period
Forecast for: LEMD (MADRID/BARAJAS , ES)
Text: TAF LEMD 261700Z 2618/2724 22011KT CAVOK TX28/2715Z TN11/2706Z
Forecast period: 1800 UTC 26 April 2018 to 0600 UTC 27 April 2018
Forecast type: BECOMING: Conditions expected to become as follows by 2000 UTC 26 April 2018
Winds: variable direction winds at 6 MPH (5 knots; 2.6 m/s)
Visibility: 6 or more miles (10+ km)
Weather: no significant weather forecast for this period
Forecast for: LEMD (MADRID/BARAJAS , ES)
Text: TAF LEMD 261700Z 2618/2724 22011KT CAVOK TX28/2715Z TN11/2706Z
Forecast period: 1800 UTC 26 April 2018 to 0600 UTC 27 April 2018
Forecast type: BECOMING: Conditions expected to become as follows by 2000 UTC 26 April 2018
Winds: variable direction winds at 6 MPH (5 knots; 2.6 m/s)
Visibility: 6 or more miles (10+ km)
Weather: no significant weather forecast for this period
Forecast for: LEMD (MADRID/BARAJAS , ES)
Text: TAF LEMD 261700Z 2618/2724 22011KT CAVOK TX28/2715Z TN11/2706Z
Forecast period: 0600 UTC 27 April 2018 to 0000 UTC 28 April 2018
Forecast type: BECOMING: Conditions expected to become as follows by 0800 UTC 27 April 2018
Winds: from the SW (220 degrees) at 14 MPH (12 knots; 6.2 m/s)
Visibility: 6 or more miles (10+ km)
Weather: no significant weather forecast for this period
Forecast for: LEMD (MADRID/BARAJAS , ES)
Text: TAF LEMD 261700Z 2618/2724 22011KT CAVOK TX28/2715Z TN11/2706Z
Forecast period: 0600 UTC 27 April 2018 to 0000 UTC 28 April 2018
Forecast type: BECOMING: Conditions expected to become as follows by 0800 UTC 27 April 2018
Winds: from the SW (220 degrees) at 14 MPH (12 knots; 6.2 m/s)
Visibility: 6 or more miles (10+ km)
Weather: no significant weather forecast for this period
Forecast for: LEMD (MADRID/BARAJAS , ES)
Text: TAF LEMD 261700Z 2618/2724 22011KT CAVOK TX28/2715Z TN11/2706Z
Forecast period: 0900 to 2200 UTC 27 April 2018
Forecast type: TEMPORARY: The following changes expected for less than half the time period
Winds: from the SW (220 degrees) at 14 MPH (12 knots; 6.2 m/s)
gusting to 25 MPH (22 knots; 11.4 m/s)
Weather: no significant weather forecast for this period
Forecast for: LEMD (MADRID/BARAJAS , ES)
Text: TAF LEMD 261700Z 2618/2724 22011KT CAVOK TX28/2715Z TN11/2706Z
Forecast period: 0900 to 2200 UTC 27 April 2018
Forecast type: TEMPORARY: The following changes expected for less than half the time period
Winds: from the SW (220 degrees) at 14 MPH (12 knots; 6.2 m/s)
gusting to 25 MPH (22 knots; 11.4 m/s)
Weather: no significant weather forecast for this period
Forecast for: LEMD (MADRID/BARAJAS , ES)
Text: TAF LEMD 261700Z 2618/2724 22011KT CAVOK TX28/2715Z TN11/2706Z
Forecast period: 1400 to 1900 UTC 27 April 2018
Forecast type: TEMPORARY: The following changes expected for less than half the time period
Clouds: few clouds at 4500 feet AGL
Weather: no significant weather forecast for this period
Forecast for: LEMD (MADRID/BARAJAS , ES)
Text: TAF LEMD 261700Z 2618/2724 22011KT CAVOK TX28/2715Z TN11/2706Z
Forecast period: 1400 to 1900 UTC 27 April 2018
Forecast type: TEMPORARY: The following changes expected for less than half the time period
Clouds: few clouds at 4500 feet AGL
Weather: no significant weather forecast for this period
Forecast for: LEMD (MADRID/BARAJAS , ES)
Text: TAF LEMD 261700Z 2618/2724 22011KT CAVOK TX28/2715Z TN11/2706Z
Forecast period: 1400 to 1800 UTC 27 April 2018
Forecast type: TEMPORARY: The following changes expected for less than half the time period
Clouds: few clouds at 4500 feet AGL
Weather: TS SHRA  (thunderstorm, rain showers)
Forecast for: LEMD (MADRID/BARAJAS , ES)
Text: TAF LEMD 261700Z 2618/2724 22011KT CAVOK TX28/2715Z TN11/2706Z
Forecast period: 1400 to 1800 UTC 27 April 2018
Forecast type: TEMPORARY: The following changes expected for less than half the time period
Clouds: few clouds at 4500 feet AGL
Weather: TS SHRA  (thunderstorm, rain showers)

 AIRPORT MAP

 RUNWAY INFORMATION
Runway 14L Runway length 11483 ft Runway width 197 ft
Runway elevation 1942 ft Runway displaced threshold 0 ft Runway heading 144
Runway 32R Runway length 11483 ft Runway width 197 ft
Runway elevation 1876 ft Runway displaced threshold 1640 ft Runway heading 324
Runway 14R Runway length 13084 ft Runway width 197 ft
Runway elevation 1995 ft Runway displaced threshold 0 ft Runway heading 144
Runway 32L Runway length 13084 ft Runway width 197 ft
Runway elevation 1909 ft Runway displaced threshold 3445 ft Runway heading 324
Runway 18L Runway length 11483 ft Runway width 197 ft
Runway elevation 1919 ft Runway displaced threshold 1640 ft Runway heading 181
Runway 36R Runway length 11483 ft Runway width 197 ft
Runway elevation 1942 ft Runway displaced threshold 0 ft Runway heading 1
Runway 18R Runway length 13711 ft Runway width 197 ft
Runway elevation 1998 ft Runway displaced threshold 3232 ft Runway heading 181
Runway 36L Runway length 13711 ft Runway width 197 ft
Runway elevation 1985 ft Runway displaced threshold 0 ft Runway heading 2

 AIRPORT FREQUENCIES
Type APP Name MADRID APP Frequency 127.5 MHZ
Type ATIS Name ATIS Frequency 118.25 MHZ
Type ATIS DEP Name ATIS Depar Frequency 130.85 MHZ
Type CLD Name Delivery E Frequency 130.075 MHZ
Type CLD Name Delivery W Frequency 130.35 MHZ
Type EMR Name FIRE Frequency 122.975 MHZ
Type GND Name GND Frequency 121.85 MHZ
Type TWR Name TWR 36L Frequency 118.07 MHZ
Type TWR Name TWR 14R Frequency 118.15 MHZ
Type TWR Name TWR 36R Frequency 118.67 MHZ
Type TWR Name TWR 14L Frequency 118.975 MHZ

 AIRPORT NEAR NAVIGATION AIDS
Type NDB Name Alcobendas Frequency 417 KHZ
Type VOR-DME Name Barajas Frequency 116450 KHZ
Type VOR-DME Name Perales Frequency 116950 KHZ
Type VOR-DME Name S.S.rRyes Frequency 117850 KHZ



v2.6.1